sensor_id;sensor_type;location;lat;lon;timestamp;P1;durP1;ratioP1;P2;durP2;ratioP2
15699;SDS011;7950;42.744;23.174;2023-06-14T00:00:49;4.73;;;4.10;;
15699;SDS011;7950;42.744;23.174;2023-06-14T00:03:19;4.60;;;3.83;;
15699;SDS011;7950;42.744;23.174;2023-06-14T00:05:48;4.10;;;3.70;;
15699;SDS011;7950;42.744;23.174;2023-06-14T00:08:19;4.60;;;3.90;;
15699;SDS011;7950;42.744;23.174;2023-06-14T00:10:49;4.60;;;4.00;;
15699;SDS011;7950;42.744;23.174;2023-06-14T00:13:18;5.83;;;3.53;;
15699;SDS011;7950;42.744;23.174;2023-06-14T00:15:47;4.10;;;3.70;;
15699;SDS011;7950;42.744;23.174;2023-06-14T00:18:15;4.30;;;3.90;;
15699;SDS011;7950;42.744;23.174;2023-06-14T00:20:44;4.10;;;3.80;;
15699;SDS011;7950;42.744;23.174;2023-06-14T00:23:14;4.27;;;3.47;;
15699;SDS011;7950;42.744;23.174;2023-06-14T00:25:44;4.70;;;3.70;;
15699;SDS011;7950;42.744;23.174;2023-06-14T00:28:14;3.83;;;3.47;;
15699;SDS011;7950;42.744;23.174;2023-06-14T00:30:43;3.93;;;3.57;;
15699;SDS011;7950;42.744;23.174;2023-06-14T00:33:13;3.67;;;3.37;;
15699;SDS011;7950;42.744;23.174;2023-06-14T00:35:42;4.27;;;3.87;;
15699;SDS011;7950;42.744;23.174;2023-06-14T00:38:11;5.13;;;3.40;;
15699;SDS011;7950;42.744;23.174;2023-06-14T00:40:40;3.53;;;3.23;;
15699;SDS011;7950;42.744;23.174;2023-06-14T00:43:10;4.23;;;3.60;;
15699;SDS011;7950;42.744;23.174;2023-06-14T00:45:39;5.47;;;3.87;;
15699;SDS011;7950;42.744;23.174;2023-06-14T00:48:08;4.10;;;3.70;;
15699;SDS011;7950;42.744;23.174;2023-06-14T00:50:38;4.03;;;3.67;;
15699;SDS011;7950;42.744;23.174;2023-06-14T00:53:08;4.37;;;3.60;;
15699;SDS011;7950;42.744;23.174;2023-06-14T00:55:37;4.10;;;3.70;;
15699;SDS011;7950;42.744;23.174;2023-06-14T00:58:06;3.53;;;2.93;;
15699;SDS011;7950;42.744;23.174;2023-06-14T01:00:38;3.57;;;3.27;;
15699;SDS011;7950;42.744;23.174;2023-06-14T01:03:07;3.70;;;3.27;;
15699;SDS011;7950;42.744;23.174;2023-06-14T01:05:39;5.03;;;3.80;;
15699;SDS011;7950;42.744;23.174;2023-06-14T01:08:14;5.17;;;3.83;;
15699;SDS011;7950;42.744;23.174;2023-06-14T01:10:56;6.83;;;3.73;;
15699;SDS011;7950;42.744;23.174;2023-06-14T01:13:35;3.30;;;3.00;;
15699;SDS011;7950;42.744;23.174;2023-06-14T01:16:10;6.57;;;4.77;;
15699;SDS011;7950;42.744;23.174;2023-06-14T01:18:39;3.60;;;3.30;;
15699;SDS011;7950;42.744;23.174;2023-06-14T01:21:20;3.97;;;3.43;;
15699;SDS011;7950;42.744;23.174;2023-06-14T01:23:52;3.80;;;3.50;;
15699;SDS011;7950;42.744;23.174;2023-06-14T01:26:22;3.73;;;3.43;;
15699;SDS011;7950;42.744;23.174;2023-06-14T01:28:52;3.80;;;3.47;;
15699;SDS011;7950;42.744;23.174;2023-06-14T01:31:25;4.73;;;3.53;;
15699;SDS011;7950;42.744;23.174;2023-06-14T01:33:56;3.57;;;3.27;;
15699;SDS011;7950;42.744;23.174;2023-06-14T01:36:24;3.90;;;3.60;;
15699;SDS011;7950;42.744;23.174;2023-06-14T01:38:57;3.90;;;3.53;;
15699;SDS011;7950;42.744;23.174;2023-06-14T01:41:28;4.53;;;3.73;;
15699;SDS011;7950;42.744;23.174;2023-06-14T01:43:58;4.47;;;3.50;;
15699;SDS011;7950;42.744;23.174;2023-06-14T01:46:29;3.97;;;3.57;;
15699;SDS011;7950;42.744;23.174;2023-06-14T01:48:58;4.87;;;3.93;;
15699;SDS011;7950;42.744;23.174;2023-06-14T01:51:28;3.40;;;3.10;;
15699;SDS011;7950;42.744;23.174;2023-06-14T01:53:58;3.83;;;3.43;;
15699;SDS011;7950;42.744;23.174;2023-06-14T01:56:27;4.30;;;3.90;;
15699;SDS011;7950;42.744;23.174;2023-06-14T01:58:57;4.17;;;3.70;;
15699;SDS011;7950;42.744;23.174;2023-06-14T02:01:26;6.03;;;3.50;;
15699;SDS011;7950;42.744;23.174;2023-06-14T02:03:55;4.53;;;4.00;;
15699;SDS011;7950;42.744;23.174;2023-06-14T02:06:24;3.53;;;3.23;;
15699;SDS011;7950;42.744;23.174;2023-06-14T02:08:54;3.87;;;3.57;;
15699;SDS011;7950;42.744;23.174;2023-06-14T02:11:25;4.43;;;3.30;;
15699;SDS011;7950;42.744;23.174;2023-06-14T02:13:54;3.40;;;3.20;;
15699;SDS011;7950;42.744;23.174;2023-06-14T02:16:26;6.60;;;3.73;;
15699;SDS011;7950;42.744;23.174;2023-06-14T02:18:56;3.30;;;3.00;;
15699;SDS011;7950;42.744;23.174;2023-06-14T02:21:25;3.77;;;3.40;;
15699;SDS011;7950;42.744;23.174;2023-06-14T02:23:54;3.93;;;3.27;;
15699;SDS011;7950;42.744;23.174;2023-06-14T02:26:23;4.03;;;3.27;;
15699;SDS011;7950;42.744;23.174;2023-06-14T02:28:53;3.50;;;3.20;;
15699;SDS011;7950;42.744;23.174;2023-06-14T02:31:23;4.33;;;3.37;;
15699;SDS011;7950;42.744;23.174;2023-06-14T02:33:52;3.73;;;3.43;;
15699;SDS011;7950;42.744;23.174;2023-06-14T02:36:21;3.60;;;3.30;;
15699;SDS011;7950;42.744;23.174;2023-06-14T02:38:50;3.30;;;3.10;;
15699;SDS011;7950;42.744;23.174;2023-06-14T02:41:20;4.07;;;3.73;;
15699;SDS011;7950;42.744;23.174;2023-06-14T02:43:49;4.77;;;3.47;;
15699;SDS011;7950;42.744;23.174;2023-06-14T02:46:19;3.93;;;3.13;;
15699;SDS011;7950;42.744;23.174;2023-06-14T02:48:48;3.90;;;3.60;;
15699;SDS011;7950;42.744;23.174;2023-06-14T02:51:17;3.67;;;3.33;;
15699;SDS011;7950;42.744;23.174;2023-06-14T02:53:46;3.93;;;3.50;;
15699;SDS011;7950;42.744;23.174;2023-06-14T02:56:15;4.47;;;3.40;;
15699;SDS011;7950;42.744;23.174;2023-06-14T02:58:44;3.67;;;3.33;;
15699;SDS011;7950;42.744;23.174;2023-06-14T03:01:15;5.00;;;3.20;;
15699;SDS011;7950;42.744;23.174;2023-06-14T03:03:46;4.93;;;3.73;;
15699;SDS011;7950;42.744;23.174;2023-06-14T03:06:15;4.17;;;3.57;;
15699;SDS011;7950;42.744;23.174;2023-06-14T03:08:45;4.23;;;3.37;;
15699;SDS011;7950;42.744;23.174;2023-06-14T03:11:15;3.97;;;3.30;;
15699;SDS011;7950;42.744;23.174;2023-06-14T03:13:47;4.63;;;3.27;;
15699;SDS011;7950;42.744;23.174;2023-06-14T03:16:17;3.67;;;3.37;;
15699;SDS011;7950;42.744;23.174;2023-06-14T03:18:53;3.60;;;3.30;;
15699;SDS011;7950;42.744;23.174;2023-06-14T03:21:25;3.60;;;3.30;;
15699;SDS011;7950;42.744;23.174;2023-06-14T03:23:54;4.70;;;3.03;;
15699;SDS011;7950;42.744;23.174;2023-06-14T03:26:23;4.80;;;3.67;;
15699;SDS011;7950;42.744;23.174;2023-06-14T03:28:52;4.80;;;3.33;;
15699;SDS011;7950;42.744;23.174;2023-06-14T03:31:21;3.77;;;3.37;;
15699;SDS011;7950;42.744;23.174;2023-06-14T03:33:52;4.90;;;3.93;;
15699;SDS011;7950;42.744;23.174;2023-06-14T03:36:21;4.73;;;4.17;;
15699;SDS011;7950;42.744;23.174;2023-06-14T03:38:51;5.53;;;4.30;;
15699;SDS011;7950;42.744;23.174;2023-06-14T03:41:20;4.07;;;3.77;;
15699;SDS011;7950;42.744;23.174;2023-06-14T03:43:49;4.83;;;4.33;;
15699;SDS011;7950;42.744;23.174;2023-06-14T03:46:18;4.20;;;3.80;;
15699;SDS011;7950;42.744;23.174;2023-06-14T03:48:46;4.43;;;4.03;;
15699;SDS011;7950;42.744;23.174;2023-06-14T03:51:17;4.43;;;4.03;;
15699;SDS011;7950;42.744;23.174;2023-06-14T03:53:46;4.50;;;4.10;;
15699;SDS011;7950;42.744;23.174;2023-06-14T03:56:35;5.80;;;3.77;;
15699;SDS011;7950;42.744;23.174;2023-06-14T03:59:04;4.00;;;3.43;;
15699;SDS011;7950;42.744;23.174;2023-06-14T04:01:33;5.37;;;4.80;;
15699;SDS011;7950;42.744;23.174;2023-06-14T04:04:02;5.37;;;4.53;;
15699;SDS011;7950;42.744;23.174;2023-06-14T04:06:33;5.33;;;4.83;;
15699;SDS011;7950;42.744;23.174;2023-06-14T04:09:02;5.73;;;4.87;;
15699;SDS011;7950;42.744;23.174;2023-06-14T04:11:31;4.73;;;4.33;;
15699;SDS011;7950;42.744;23.174;2023-06-14T04:14:01;4.83;;;4.33;;
15699;SDS011;7950;42.744;23.174;2023-06-14T04:16:30;4.23;;;3.93;;
15699;SDS011;7950;42.744;23.174;2023-06-14T04:19:00;3.83;;;3.53;;
15699;SDS011;7950;42.744;23.174;2023-06-14T04:21:29;4.27;;;3.87;;
15699;SDS011;7950;42.744;23.174;2023-06-14T04:24:03;5.27;;;4.30;;
15699;SDS011;7950;42.744;23.174;2023-06-14T04:26:33;4.33;;;3.93;;
15699;SDS011;7950;42.744;23.174;2023-06-14T04:29:03;4.17;;;3.70;;
15699;SDS011;7950;42.744;23.174;2023-06-14T04:31:32;3.73;;;3.43;;
15699;SDS011;7950;42.744;23.174;2023-06-14T04:34:04;3.93;;;3.63;;
15699;SDS011;7950;42.744;23.174;2023-06-14T04:36:33;4.30;;;4.00;;
15699;SDS011;7950;42.744;23.174;2023-06-14T04:39:05;4.27;;;3.87;;
15699;SDS011;7950;42.744;23.174;2023-06-14T04:41:34;3.90;;;3.60;;
15699;SDS011;7950;42.744;23.174;2023-06-14T04:44:03;4.40;;;4.00;;
15699;SDS011;7950;42.744;23.174;2023-06-14T04:46:34;4.10;;;3.80;;
15699;SDS011;7950;42.744;23.174;2023-06-14T04:49:10;3.70;;;3.40;;
15699;SDS011;7950;42.744;23.174;2023-06-14T04:51:43;3.50;;;3.20;;
15699;SDS011;7950;42.744;23.174;2023-06-14T04:54:15;3.40;;;3.13;;
15699;SDS011;7950;42.744;23.174;2023-06-14T04:56:45;3.77;;;3.40;;
15699;SDS011;7950;42.744;23.174;2023-06-14T04:59:14;5.43;;;4.20;;
15699;SDS011;7950;42.744;23.174;2023-06-14T05:01:44;5.43;;;3.97;;
15699;SDS011;7950;42.744;23.174;2023-06-14T05:04:14;6.50;;;4.47;;
15699;SDS011;7950;42.744;23.174;2023-06-14T05:06:43;4.60;;;4.03;;
15699;SDS011;7950;42.744;23.174;2023-06-14T05:09:16;5.10;;;3.90;;
15699;SDS011;7950;42.744;23.174;2023-06-14T05:11:45;5.93;;;5.03;;
15699;SDS011;7950;42.744;23.174;2023-06-14T05:14:14;6.17;;;4.67;;
15699;SDS011;7950;42.744;23.174;2023-06-14T05:16:43;4.17;;;3.87;;
15699;SDS011;7950;42.744;23.174;2023-06-14T05:19:12;5.17;;;4.67;;
15699;SDS011;7950;42.744;23.174;2023-06-14T05:21:41;8.10;;;4.60;;
15699;SDS011;7950;42.744;23.174;2023-06-14T05:24:10;6.53;;;5.10;;
15699;SDS011;7950;42.744;23.174;2023-06-14T05:26:41;6.90;;;6.10;;
15699;SDS011;7950;42.744;23.174;2023-06-14T05:29:09;6.40;;;5.63;;
15699;SDS011;7950;42.744;23.174;2023-06-14T05:31:38;7.27;;;5.07;;
15699;SDS011;7950;42.744;23.174;2023-06-14T05:34:07;8.53;;;5.83;;
15699;SDS011;7950;42.744;23.174;2023-06-14T05:36:36;6.53;;;5.77;;
15699;SDS011;7950;42.744;23.174;2023-06-14T05:39:05;7.50;;;5.60;;
15699;SDS011;7950;42.744;23.174;2023-06-14T05:41:35;7.80;;;6.17;;
15699;SDS011;7950;42.744;23.174;2023-06-14T05:44:05;11.97;;;6.57;;
15699;SDS011;7950;42.744;23.174;2023-06-14T05:46:35;8.10;;;5.97;;
15699;SDS011;7950;42.744;23.174;2023-06-14T05:49:06;6.73;;;5.43;;
15699;SDS011;7950;42.744;23.174;2023-06-14T05:51:35;5.87;;;5.33;;
15699;SDS011;7950;42.744;23.174;2023-06-14T05:54:04;5.87;;;5.37;;
15699;SDS011;7950;42.744;23.174;2023-06-14T05:56:33;5.80;;;4.80;;
15699;SDS011;7950;42.744;23.174;2023-06-14T05:59:02;5.47;;;4.97;;
15699;SDS011;7950;42.744;23.174;2023-06-14T06:01:33;5.87;;;5.37;;
15699;SDS011;7950;42.744;23.174;2023-06-14T06:04:03;7.10;;;5.77;;
15699;SDS011;7950;42.744;23.174;2023-06-14T06:06:33;5.93;;;4.93;;
15699;SDS011;7950;42.744;23.174;2023-06-14T06:09:02;8.03;;;6.83;;
15699;SDS011;7950;42.744;23.174;2023-06-14T06:11:32;10.90;;;6.67;;
15699;SDS011;7950;42.744;23.174;2023-06-14T06:14:18;7.33;;;6.07;;
15699;SDS011;7950;42.744;23.174;2023-06-14T06:16:48;6.77;;;6.07;;
15699;SDS011;7950;42.744;23.174;2023-06-14T06:19:19;6.13;;;4.93;;
15699;SDS011;7950;42.744;23.174;2023-06-14T06:21:48;6.10;;;5.50;;
15699;SDS011;7950;42.744;23.174;2023-06-14T06:24:17;7.33;;;5.33;;
15699;SDS011;7950;42.744;23.174;2023-06-14T06:26:46;8.07;;;6.77;;
15699;SDS011;7950;42.744;23.174;2023-06-14T06:29:15;6.90;;;5.93;;
15699;SDS011;7950;42.744;23.174;2023-06-14T06:31:44;6.10;;;5.50;;
15699;SDS011;7950;42.744;23.174;2023-06-14T06:34:15;6.10;;;5.50;;
15699;SDS011;7950;42.744;23.174;2023-06-14T06:36:43;7.77;;;6.70;;
15699;SDS011;7950;42.744;23.174;2023-06-14T06:39:12;7.13;;;6.47;;
15699;SDS011;7950;42.744;23.174;2023-06-14T06:41:41;9.27;;;6.63;;
15699;SDS011;7950;42.744;23.174;2023-06-14T06:44:10;8.70;;;6.70;;
15699;SDS011;7950;42.744;23.174;2023-06-14T06:46:40;7.67;;;6.10;;
15699;SDS011;7950;42.744;23.174;2023-06-14T06:49:09;7.20;;;6.50;;
15699;SDS011;7950;42.744;23.174;2023-06-14T06:51:42;8.33;;;5.60;;
15699;SDS011;7950;42.744;23.174;2023-06-14T06:54:11;5.70;;;5.20;;
15699;SDS011;7950;42.744;23.174;2023-06-14T06:56:40;7.47;;;6.77;;
15699;SDS011;7950;42.744;23.174;2023-06-14T06:59:09;8.17;;;7.37;;
15699;SDS011;7950;42.744;23.174;2023-06-14T07:01:40;7.53;;;6.60;;
15699;SDS011;7950;42.744;23.174;2023-06-14T07:04:09;7.30;;;5.87;;
15699;SDS011;7950;42.744;23.174;2023-06-14T07:06:38;7.77;;;6.90;;
15699;SDS011;7950;42.744;23.174;2023-06-14T07:09:09;7.13;;;6.43;;
15699;SDS011;7950;42.744;23.174;2023-06-14T07:11:39;9.50;;;6.93;;
15699;SDS011;7950;42.744;23.174;2023-06-14T07:14:08;7.70;;;6.93;;
15699;SDS011;7950;42.744;23.174;2023-06-14T07:16:37;6.57;;;5.80;;
15699;SDS011;7950;42.744;23.174;2023-06-14T07:19:08;7.63;;;6.10;;
15699;SDS011;7950;42.744;23.174;2023-06-14T07:21:37;7.50;;;6.33;;
15699;SDS011;7950;42.744;23.174;2023-06-14T07:24:06;6.60;;;6.00;;
15699;SDS011;7950;42.744;23.174;2023-06-14T07:26:37;6.17;;;5.37;;
15699;SDS011;7950;42.744;23.174;2023-06-14T07:29:06;6.57;;;5.83;;
15699;SDS011;7950;42.744;23.174;2023-06-14T07:31:35;7.30;;;6.50;;
15699;SDS011;7950;42.744;23.174;2023-06-14T07:34:04;6.60;;;6.00;;
15699;SDS011;7950;42.744;23.174;2023-06-14T07:36:33;6.17;;;5.67;;
15699;SDS011;7950;42.744;23.174;2023-06-14T07:39:03;6.37;;;5.13;;
15699;SDS011;7950;42.744;23.174;2023-06-14T07:41:33;8.53;;;7.07;;
15699;SDS011;7950;42.744;23.174;2023-06-14T07:44:03;7.53;;;6.80;;
15699;SDS011;7950;42.744;23.174;2023-06-14T07:46:32;5.93;;;5.33;;
15699;SDS011;7950;42.744;23.174;2023-06-14T07:49:02;6.80;;;6.10;;
15699;SDS011;7950;42.744;23.174;2023-06-14T07:51:32;7.27;;;6.63;;
15699;SDS011;7950;42.744;23.174;2023-06-14T07:54:00;8.37;;;7.57;;
15699;SDS011;7950;42.744;23.174;2023-06-14T07:56:33;6.47;;;5.87;;
15699;SDS011;7950;42.744;23.174;2023-06-14T07:59:04;7.40;;;6.80;;
15699;SDS011;7950;42.744;23.174;2023-06-14T08:01:34;9.97;;;8.63;;
15699;SDS011;7950;42.744;23.174;2023-06-14T08:04:03;8.97;;;6.90;;
15699;SDS011;7950;42.744;23.174;2023-06-14T08:06:33;7.87;;;7.07;;
15699;SDS011;7950;42.744;23.174;2023-06-14T08:09:02;8.63;;;7.40;;
15699;SDS011;7950;42.744;23.174;2023-06-14T08:11:31;9.00;;;7.53;;
15699;SDS011;7950;42.744;23.174;2023-06-14T08:14:04;9.07;;;7.10;;
15699;SDS011;7950;42.744;23.174;2023-06-14T08:16:33;8.13;;;7.33;;
15699;SDS011;7950;42.744;23.174;2023-06-14T08:19:02;8.77;;;7.97;;
15699;SDS011;7950;42.744;23.174;2023-06-14T08:21:32;9.07;;;8.20;;
15699;SDS011;7950;42.744;23.174;2023-06-14T08:24:03;9.77;;;7.73;;
15699;SDS011;7950;42.744;23.174;2023-06-14T08:26:32;6.67;;;6.07;;
15699;SDS011;7950;42.744;23.174;2023-06-14T08:29:05;8.63;;;7.33;;
15699;SDS011;7950;42.744;23.174;2023-06-14T08:31:34;12.70;;;8.37;;
15699;SDS011;7950;42.744;23.174;2023-06-14T08:34:03;9.97;;;8.27;;
15699;SDS011;7950;42.744;23.174;2023-06-14T08:36:33;9.60;;;8.60;;
15699;SDS011;7950;42.744;23.174;2023-06-14T08:39:03;9.43;;;8.47;;
15699;SDS011;7950;42.744;23.174;2023-06-14T08:41:32;9.40;;;8.43;;
15699;SDS011;7950;42.744;23.174;2023-06-14T08:44:02;10.13;;;9.13;;
15699;SDS011;7950;42.744;23.174;2023-06-14T08:46:34;10.43;;;9.43;;
15699;SDS011;7950;42.744;23.174;2023-06-14T08:49:05;10.40;;;9.07;;
15699;SDS011;7950;42.744;23.174;2023-06-14T08:51:36;10.20;;;8.93;;
15699;SDS011;7950;42.744;23.174;2023-06-14T08:54:07;11.67;;;9.53;;
15699;SDS011;7950;42.744;23.174;2023-06-14T08:56:38;10.33;;;9.30;;
15699;SDS011;7950;42.744;23.174;2023-06-14T08:59:12;9.33;;;8.43;;
15699;SDS011;7950;42.744;23.174;2023-06-14T09:01:41;9.30;;;8.30;;
15699;SDS011;7950;42.744;23.174;2023-06-14T09:04:32;9.50;;;8.60;;
15699;SDS011;7950;42.744;23.174;2023-06-14T09:07:02;11.70;;;9.47;;
15699;SDS011;7950;42.744;23.174;2023-06-14T09:09:33;9.37;;;8.47;;
15699;SDS011;7950;42.744;23.174;2023-06-14T09:12:28;13.10;;;9.37;;
15699;SDS011;7950;42.744;23.174;2023-06-14T09:15:00;10.63;;;9.47;;
15699;SDS011;7950;42.744;23.174;2023-06-14T09:17:32;11.60;;;9.67;;
15699;SDS011;7950;42.744;23.174;2023-06-14T09:20:02;10.03;;;9.07;;
15699;SDS011;7950;42.744;23.174;2023-06-14T09:22:36;10.23;;;9.23;;
15699;SDS011;7950;42.744;23.174;2023-06-14T09:25:06;10.23;;;9.23;;
15699;SDS011;7950;42.744;23.174;2023-06-14T09:27:51;10.67;;;8.60;;
15699;SDS011;7950;42.744;23.174;2023-06-14T09:30:21;10.47;;;9.50;;
15699;SDS011;7950;42.744;23.174;2023-06-14T09:32:50;10.10;;;9.10;;
15699;SDS011;7950;42.744;23.174;2023-06-14T09:35:20;10.00;;;9.00;;
15699;SDS011;7950;42.744;23.174;2023-06-14T09:37:49;9.70;;;8.60;;
15699;SDS011;7950;42.744;23.174;2023-06-14T09:40:20;10.77;;;9.67;;
15699;SDS011;7950;42.744;23.174;2023-06-14T09:42:49;10.07;;;9.03;;
15699;SDS011;7950;42.744;23.174;2023-06-14T09:45:18;10.77;;;9.77;;
15699;SDS011;7950;42.744;23.174;2023-06-14T09:47:50;10.90;;;8.67;;
15699;SDS011;7950;42.744;23.174;2023-06-14T09:50:32;10.43;;;9.43;;
15699;SDS011;7950;42.744;23.174;2023-06-14T09:53:02;10.60;;;9.60;;
15699;SDS011;7950;42.744;23.174;2023-06-14T09:55:35;10.13;;;9.13;;
15699;SDS011;7950;42.744;23.174;2023-06-14T09:58:08;10.20;;;8.97;;
15699;SDS011;7950;42.744;23.174;2023-06-14T10:00:41;9.40;;;8.50;;
15699;SDS011;7950;42.744;23.174;2023-06-14T10:03:13;14.27;;;9.73;;
15699;SDS011;7950;42.744;23.174;2023-06-14T10:05:48;10.93;;;9.70;;
15699;SDS011;7950;42.744;23.174;2023-06-14T10:08:19;10.17;;;9.17;;
15699;SDS011;7950;42.744;23.174;2023-06-14T10:10:55;10.00;;;8.93;;
15699;SDS011;7950;42.744;23.174;2023-06-14T10:13:25;10.03;;;9.03;;
15699;SDS011;7950;42.744;23.174;2023-06-14T10:16:00;10.10;;;9.20;;
15699;SDS011;7950;42.744;23.174;2023-06-14T10:18:41;10.60;;;9.30;;
15699;SDS011;7950;42.744;23.174;2023-06-14T10:21:22;10.87;;;9.83;;
15699;SDS011;7950;42.744;23.174;2023-06-14T10:24:05;10.13;;;9.13;;
15699;SDS011;7950;42.744;23.174;2023-06-14T10:26:49;11.33;;;9.13;;
15699;SDS011;7950;42.744;23.174;2023-06-14T10:29:22;11.87;;;9.97;;
15699;SDS011;7950;42.744;23.174;2023-06-14T10:31:57;10.87;;;9.77;;
15699;SDS011;7950;42.744;23.174;2023-06-14T10:34:28;10.43;;;9.33;;
15699;SDS011;7950;42.744;23.174;2023-06-14T10:37:00;10.50;;;9.50;;
15699;SDS011;7950;42.744;23.174;2023-06-14T10:39:32;10.93;;;9.93;;
15699;SDS011;7950;42.744;23.174;2023-06-14T10:42:06;12.20;;;11.00;;
15699;SDS011;7950;42.744;23.174;2023-06-14T10:44:41;11.60;;;10.43;;
15699;SDS011;7950;42.744;23.174;2023-06-14T10:50:05;10.50;;;9.50;;
15699;SDS011;7950;42.744;23.174;2023-06-14T10:52:38;10.73;;;9.63;;
15699;SDS011;7950;42.744;23.174;2023-06-14T10:55:13;10.67;;;9.67;;
15699;SDS011;7950;42.744;23.174;2023-06-14T10:57:46;11.17;;;10.00;;
15699;SDS011;7950;42.744;23.174;2023-06-14T11:00:21;11.90;;;9.20;;
15699;SDS011;7950;42.744;23.174;2023-06-14T11:06:10;10.90;;;9.90;;
15699;SDS011;7950;42.744;23.174;2023-06-14T11:12:14;10.17;;;8.43;;
15699;SDS011;7950;42.744;23.174;2023-06-14T11:14:46;10.17;;;9.17;;
15699;SDS011;7950;42.744;23.174;2023-06-14T11:17:15;10.93;;;9.50;;
15699;SDS011;7950;42.744;23.174;2023-06-14T11:19:46;11.00;;;10.00;;
15699;SDS011;7950;42.744;23.174;2023-06-14T11:22:14;10.77;;;9.77;;
15699;SDS011;7950;42.744;23.174;2023-06-14T11:24:43;10.43;;;9.10;;
15699;SDS011;7950;42.744;23.174;2023-06-14T11:27:12;10.83;;;9.17;;
15699;SDS011;7950;42.744;23.174;2023-06-14T11:29:47;9.53;;;8.63;;
15699;SDS011;7950;42.744;23.174;2023-06-14T11:32:17;11.60;;;9.70;;
15699;SDS011;7950;42.744;23.174;2023-06-14T11:34:48;10.57;;;9.27;;
15699;SDS011;7950;42.744;23.174;2023-06-14T11:37:18;10.43;;;9.20;;
15699;SDS011;7950;42.744;23.174;2023-06-14T11:39:47;10.40;;;9.30;;
15699;SDS011;7950;42.744;23.174;2023-06-14T11:42:17;10.33;;;9.10;;
15699;SDS011;7950;42.744;23.174;2023-06-14T11:44:46;9.37;;;8.47;;
15699;SDS011;7950;42.744;23.174;2023-06-14T11:47:15;14.00;;;9.63;;
15699;SDS011;7950;42.744;23.174;2023-06-14T11:49:44;10.53;;;9.43;;
15699;SDS011;7950;42.744;23.174;2023-06-14T11:52:16;10.30;;;9.30;;
15699;SDS011;7950;42.744;23.174;2023-06-14T11:54:47;10.97;;;9.73;;
15699;SDS011;7950;42.744;23.174;2023-06-14T11:57:17;10.20;;;9.10;;
15699;SDS011;7950;42.744;23.174;2023-06-14T11:59:46;11.77;;;10.57;;
15699;SDS011;7950;42.744;23.174;2023-06-14T12:02:17;10.00;;;8.93;;
15699;SDS011;7950;42.744;23.174;2023-06-14T12:04:50;11.10;;;10.00;;
15699;SDS011;7950;42.744;23.174;2023-06-14T12:07:21;10.43;;;9.47;;
15699;SDS011;7950;42.744;23.174;2023-06-14T12:12:37;11.33;;;9.17;;
15699;SDS011;7950;42.744;23.174;2023-06-14T12:15:09;9.97;;;8.83;;
15699;SDS011;7950;42.744;23.174;2023-06-14T12:17:41;11.63;;;9.53;;
15699;SDS011;7950;42.744;23.174;2023-06-14T12:20:11;10.20;;;9.23;;
15699;SDS011;7950;42.744;23.174;2023-06-14T12:22:54;12.13;;;9.60;;
15699;SDS011;7950;42.744;23.174;2023-06-14T12:25:26;10.57;;;9.50;;
15699;SDS011;7950;42.744;23.174;2023-06-14T12:27:59;9.03;;;8.23;;
15699;SDS011;7950;42.744;23.174;2023-06-14T12:30:33;10.97;;;9.90;;
15699;SDS011;7950;42.744;23.174;2023-06-14T12:33:04;11.27;;;10.17;;
15699;SDS011;7950;42.744;23.174;2023-06-14T12:35:34;10.70;;;9.63;;
15699;SDS011;7950;42.744;23.174;2023-06-14T12:38:04;11.97;;;10.83;;
15699;SDS011;7950;42.744;23.174;2023-06-14T12:40:34;10.60;;;9.50;;
15699;SDS011;7950;42.744;23.174;2023-06-14T12:43:04;11.70;;;10.60;;
15699;SDS011;7950;42.744;23.174;2023-06-14T12:45:33;10.63;;;9.20;;
15699;SDS011;7950;42.744;23.174;2023-06-14T12:48:02;9.77;;;8.77;;
15699;SDS011;7950;42.744;23.174;2023-06-14T12:50:32;9.83;;;8.50;;
15699;SDS011;7950;42.744;23.174;2023-06-14T12:53:01;11.60;;;9.53;;
15699;SDS011;7950;42.744;23.174;2023-06-14T12:55:31;10.80;;;9.57;;
15699;SDS011;7950;42.744;23.174;2023-06-14T12:58:00;9.33;;;8.27;;
15699;SDS011;7950;42.744;23.174;2023-06-14T13:00:29;9.53;;;8.53;;
15699;SDS011;7950;42.744;23.174;2023-06-14T13:02:58;10.27;;;9.17;;
15699;SDS011;7950;42.744;23.174;2023-06-14T13:05:27;9.50;;;8.60;;
15699;SDS011;7950;42.744;23.174;2023-06-14T13:07:58;8.43;;;7.63;;
15699;SDS011;7950;42.744;23.174;2023-06-14T13:10:27;7.97;;;7.20;;
15699;SDS011;7950;42.744;23.174;2023-06-14T13:12:57;9.27;;;8.47;;
15699;SDS011;7950;42.744;23.174;2023-06-14T13:15:26;8.77;;;7.97;;
15699;SDS011;7950;42.744;23.174;2023-06-14T13:17:55;10.03;;;7.70;;
15699;SDS011;7950;42.744;23.174;2023-06-14T13:20:24;9.07;;;8.17;;
15699;SDS011;7950;42.744;23.174;2023-06-14T13:22:53;9.73;;;8.50;;
15699;SDS011;7950;42.744;23.174;2023-06-14T13:25:22;9.70;;;8.70;;
15699;SDS011;7950;42.744;23.174;2023-06-14T13:27:51;8.50;;;7.67;;
15699;SDS011;7950;42.744;23.174;2023-06-14T13:30:22;9.03;;;8.13;;
15699;SDS011;7950;42.744;23.174;2023-06-14T13:32:51;9.40;;;8.00;;
15699;SDS011;7950;42.744;23.174;2023-06-14T13:35:20;11.73;;;10.50;;
15699;SDS011;7950;42.744;23.174;2023-06-14T13:37:49;11.27;;;9.40;;
15699;SDS011;7950;42.744;23.174;2023-06-14T13:40:18;8.60;;;7.80;;
15699;SDS011;7950;42.744;23.174;2023-06-14T13:42:47;9.97;;;8.97;;
15699;SDS011;7950;42.744;23.174;2023-06-14T13:45:17;9.93;;;8.93;;
15699;SDS011;7950;42.744;23.174;2023-06-14T13:47:47;10.57;;;8.17;;
15699;SDS011;7950;42.744;23.174;2023-06-14T13:50:16;8.83;;;7.90;;
15699;SDS011;7950;42.744;23.174;2023-06-14T13:52:45;8.80;;;7.93;;
15699;SDS011;7950;42.744;23.174;2023-06-14T13:55:14;8.53;;;7.60;;
15699;SDS011;7950;42.744;23.174;2023-06-14T13:57:43;9.40;;;6.87;;
15699;SDS011;7950;42.744;23.174;2023-06-14T14:00:13;7.30;;;6.60;;
15699;SDS011;7950;42.744;23.174;2023-06-14T14:02:48;7.87;;;6.27;;
15699;SDS011;7950;42.744;23.174;2023-06-14T14:05:18;7.63;;;6.93;;
15699;SDS011;7950;42.744;23.174;2023-06-14T14:07:47;7.13;;;6.53;;
15699;SDS011;7950;42.744;23.174;2023-06-14T14:10:16;7.20;;;6.53;;
15699;SDS011;7950;42.744;23.174;2023-06-14T14:12:46;6.37;;;5.77;;
15699;SDS011;7950;42.744;23.174;2023-06-14T14:15:15;7.10;;;6.40;;
15699;SDS011;7950;42.744;23.174;2023-06-14T14:17:45;7.43;;;6.73;;
15699;SDS011;7950;42.744;23.174;2023-06-14T14:20:16;7.53;;;6.73;;
15699;SDS011;7950;42.744;23.174;2023-06-14T14:22:46;7.83;;;7.07;;
15699;SDS011;7950;42.744;23.174;2023-06-14T14:25:15;7.10;;;6.40;;
15699;SDS011;7950;42.744;23.174;2023-06-14T14:27:44;6.70;;;6.10;;
15699;SDS011;7950;42.744;23.174;2023-06-14T14:30:13;7.47;;;6.60;;
15699;SDS011;7950;42.744;23.174;2023-06-14T14:32:44;7.63;;;6.70;;
15699;SDS011;7950;42.744;23.174;2023-06-14T14:35:16;7.07;;;6.40;;
15699;SDS011;7950;42.744;23.174;2023-06-14T14:37:45;7.20;;;6.47;;
15699;SDS011;7950;42.744;23.174;2023-06-14T14:40:14;7.00;;;6.30;;
15699;SDS011;7950;42.744;23.174;2023-06-14T14:42:44;10.20;;;6.93;;
15699;SDS011;7950;42.744;23.174;2023-06-14T14:45:13;7.40;;;6.57;;
15699;SDS011;7950;42.744;23.174;2023-06-14T14:47:42;7.57;;;6.77;;
15699;SDS011;7950;42.744;23.174;2023-06-14T14:50:11;8.93;;;7.13;;
15699;SDS011;7950;42.744;23.174;2023-06-14T14:52:41;7.77;;;6.63;;
15699;SDS011;7950;42.744;23.174;2023-06-14T14:55:10;9.23;;;8.33;;
15699;SDS011;7950;42.744;23.174;2023-06-14T14:57:39;10.03;;;8.97;;
15699;SDS011;7950;42.744;23.174;2023-06-14T15:00:09;8.33;;;7.50;;
15699;SDS011;7950;42.744;23.174;2023-06-14T15:02:39;8.93;;;8.03;;
15699;SDS011;7950;42.744;23.174;2023-06-14T15:05:08;13.00;;;8.70;;
15699;SDS011;7950;42.744;23.174;2023-06-14T15:07:37;12.87;;;8.33;;
15699;SDS011;7950;42.744;23.174;2023-06-14T15:10:09;8.40;;;7.50;;
15699;SDS011;7950;42.744;23.174;2023-06-14T15:12:38;9.47;;;7.93;;
15699;SDS011;7950;42.744;23.174;2023-06-14T15:15:07;8.50;;;7.33;;